sensor_id;sensor_type;location;lat;lon;timestamp;P1;durP1;ratioP1;P2;durP2;ratioP2
45322;SDS011;31382;50.200;8.674;2022-08-14T00:04:58;4.20;;;2.40;;
45322;SDS011;31382;50.200;8.674;2022-08-14T00:10:00;3.97;;;2.78;;
45322;SDS011;31382;50.200;8.674;2022-08-14T00:15:29;3.38;;;2.83;;
45322;SDS011;31382;50.200;8.674;2022-08-14T00:20:44;3.13;;;2.50;;
45322;SDS011;31382;50.200;8.674;2022-08-14T00:25:48;6.90;;;2.78;;
45322;SDS011;31382;50.200;8.674;2022-08-14T00:30:59;3.67;;;2.30;;
45322;SDS011;31382;50.200;8.674;2022-08-14T00:36:02;5.88;;;2.60;;
45322;SDS011;31382;50.200;8.674;2022-08-14T00:41:28;5.32;;;2.25;;
45322;SDS011;31382;50.200;8.674;2022-08-14T00:46:33;5.13;;;2.10;;
45322;SDS011;31382;50.200;8.674;2022-08-14T00:51:37;5.20;;;2.53;;
45322;SDS011;31382;50.200;8.674;2022-08-14T00:56:41;5.65;;;2.70;;
45322;SDS011;31382;50.200;8.674;2022-08-14T01:01:43;4.65;;;2.28;;
45322;SDS011;31382;50.200;8.674;2022-08-14T01:06:46;2.70;;;2.17;;
45322;SDS011;31382;50.200;8.674;2022-08-14T01:11:55;5.28;;;2.60;;
45322;SDS011;31382;50.200;8.674;2022-08-14T01:17:03;3.22;;;2.28;;
45322;SDS011;31382;50.200;8.674;2022-08-14T01:22:09;4.32;;;2.70;;
45322;SDS011;31382;50.200;8.674;2022-08-14T01:27:13;2.72;;;2.38;;
45322;SDS011;31382;50.200;8.674;2022-08-14T01:32:19;4.27;;;2.63;;
45322;SDS011;31382;50.200;8.674;2022-08-14T01:37:23;3.10;;;2.33;;
45322;SDS011;31382;50.200;8.674;2022-08-14T01:42:26;3.75;;;2.83;;
45322;SDS011;31382;50.200;8.674;2022-08-14T01:47:32;4.90;;;2.90;;
45322;SDS011;31382;50.200;8.674;2022-08-14T01:52:37;4.20;;;2.58;;
45322;SDS011;31382;50.200;8.674;2022-08-14T01:57:59;3.00;;;2.40;;
45322;SDS011;31382;50.200;8.674;2022-08-14T02:03:28;3.55;;;2.92;;
45322;SDS011;31382;50.200;8.674;2022-08-14T02:08:31;4.15;;;2.55;;
45322;SDS011;31382;50.200;8.674;2022-08-14T02:13:35;5.68;;;3.15;;
45322;SDS011;31382;50.200;8.674;2022-08-14T02:18:38;3.65;;;2.40;;
45322;SDS011;31382;50.200;8.674;2022-08-14T02:23:40;5.68;;;2.45;;
45322;SDS011;31382;50.200;8.674;2022-08-14T02:28:43;4.20;;;2.42;;
45322;SDS011;31382;50.200;8.674;2022-08-14T02:44:30;10.63;;;2.67;;
45322;SDS011;31382;50.200;8.674;2022-08-14T02:49:40;3.47;;;2.60;;
45322;SDS011;31382;50.200;8.674;2022-08-14T02:54:43;6.28;;;2.80;;
45322;SDS011;31382;50.200;8.674;2022-08-14T02:59:46;5.15;;;2.90;;
45322;SDS011;31382;50.200;8.674;2022-08-14T03:04:51;5.10;;;3.28;;
45322;SDS011;31382;50.200;8.674;2022-08-14T03:09:55;4.82;;;3.42;;
45322;SDS011;31382;50.200;8.674;2022-08-14T03:15:17;6.15;;;2.83;;
45322;SDS011;31382;50.200;8.674;2022-08-14T03:20:21;4.53;;;3.47;;
45322;SDS011;31382;50.200;8.674;2022-08-14T03:25:23;6.25;;;3.95;;
45322;SDS011;31382;50.200;8.674;2022-08-14T03:30:26;4.28;;;3.50;;
45322;SDS011;31382;50.200;8.674;2022-08-14T03:35:41;5.80;;;3.25;;
45322;SDS011;31382;50.200;8.674;2022-08-14T03:41:03;8.65;;;4.10;;
45322;SDS011;31382;50.200;8.674;2022-08-14T03:46:07;4.93;;;3.13;;
45322;SDS011;31382;50.200;8.674;2022-08-14T03:51:31;5.75;;;3.60;;
45322;SDS011;31382;50.200;8.674;2022-08-14T03:56:34;4.40;;;3.30;;
45322;SDS011;31382;50.200;8.674;2022-08-14T04:01:44;3.95;;;2.88;;
45322;SDS011;31382;50.200;8.674;2022-08-14T04:07:02;5.82;;;4.03;;
45322;SDS011;31382;50.200;8.674;2022-08-14T04:12:04;5.82;;;4.35;;
45322;SDS011;31382;50.200;8.674;2022-08-14T04:17:08;7.03;;;4.00;;
45322;SDS011;31382;50.200;8.674;2022-08-14T04:22:12;4.88;;;3.75;;
45322;SDS011;31382;50.200;8.674;2022-08-14T04:27:16;7.10;;;4.00;;
45322;SDS011;31382;50.200;8.674;2022-08-14T04:32:18;9.55;;;3.60;;
45322;SDS011;31382;50.200;8.674;2022-08-14T04:37:43;5.57;;;3.85;;
45322;SDS011;31382;50.200;8.674;2022-08-14T04:43:24;6.20;;;3.70;;
45322;SDS011;31382;50.200;8.674;2022-08-14T04:48:40;6.47;;;3.92;;
45322;SDS011;31382;50.200;8.674;2022-08-14T04:53:51;6.25;;;3.92;;
45322;SDS011;31382;50.200;8.674;2022-08-14T04:58:57;8.48;;;4.10;;
45322;SDS011;31382;50.200;8.674;2022-08-14T05:04:02;6.43;;;4.13;;
45322;SDS011;31382;50.200;8.674;2022-08-14T05:09:07;8.90;;;4.30;;
45322;SDS011;31382;50.200;8.674;2022-08-14T05:14:14;9.00;;;4.72;;
45322;SDS011;31382;50.200;8.674;2022-08-14T05:19:38;10.57;;;4.53;;
45322;SDS011;31382;50.200;8.674;2022-08-14T05:25:01;5.60;;;4.22;;
45322;SDS011;31382;50.200;8.674;2022-08-14T05:30:05;5.85;;;4.45;;
45322;SDS011;31382;50.200;8.674;2022-08-14T05:35:09;5.25;;;4.13;;
45322;SDS011;31382;50.200;8.674;2022-08-14T05:40:14;7.20;;;4.40;;
45322;SDS011;31382;50.200;8.674;2022-08-14T05:45:18;6.78;;;4.30;;
45322;SDS011;31382;50.200;8.674;2022-08-14T05:50:20;6.53;;;4.10;;
45322;SDS011;31382;50.200;8.674;2022-08-14T05:55:23;8.88;;;4.28;;
45322;SDS011;31382;50.200;8.674;2022-08-14T06:00:27;8.52;;;4.28;;
45322;SDS011;31382;50.200;8.674;2022-08-14T06:05:39;7.50;;;4.10;;
45322;SDS011;31382;50.200;8.674;2022-08-14T06:10:41;5.47;;;4.03;;
45322;SDS011;31382;50.200;8.674;2022-08-14T06:15:45;11.13;;;4.15;;
45322;SDS011;31382;50.200;8.674;2022-08-14T06:20:48;5.68;;;4.00;;
45322;SDS011;31382;50.200;8.674;2022-08-14T06:25:50;5.72;;;4.32;;
45322;SDS011;31382;50.200;8.674;2022-08-14T06:30:53;6.30;;;4.35;;
45322;SDS011;31382;50.200;8.674;2022-08-14T06:35:56;5.40;;;3.75;;
45322;SDS011;31382;50.200;8.674;2022-08-14T06:40:58;8.07;;;4.45;;
45322;SDS011;31382;50.200;8.674;2022-08-14T06:46:00;5.22;;;4.18;;
45322;SDS011;31382;50.200;8.674;2022-08-14T06:51:04;6.13;;;4.05;;
45322;SDS011;31382;50.200;8.674;2022-08-14T06:56:06;6.85;;;3.50;;
45322;SDS011;31382;50.200;8.674;2022-08-14T07:01:08;4.95;;;3.85;;
45322;SDS011;31382;50.200;8.674;2022-08-14T07:06:28;6.20;;;3.20;;
45322;SDS011;31382;50.200;8.674;2022-08-14T07:11:47;7.63;;;3.75;;
45322;SDS011;31382;50.200;8.674;2022-08-14T07:16:51;6.60;;;4.50;;
45322;SDS011;31382;50.200;8.674;2022-08-14T07:21:52;5.45;;;3.70;;
45322;SDS011;31382;50.200;8.674;2022-08-14T07:26:54;7.85;;;3.97;;
45322;SDS011;31382;50.200;8.674;2022-08-14T07:31:56;6.50;;;3.63;;
45322;SDS011;31382;50.200;8.674;2022-08-14T07:36:58;6.03;;;3.92;;
45322;SDS011;31382;50.200;8.674;2022-08-14T07:42:01;5.22;;;3.95;;
45322;SDS011;31382;50.200;8.674;2022-08-14T07:47:03;6.35;;;4.00;;
45322;SDS011;31382;50.200;8.674;2022-08-14T07:52:05;7.82;;;3.60;;
45322;SDS011;31382;50.200;8.674;2022-08-14T07:57:08;4.55;;;3.75;;
45322;SDS011;31382;50.200;8.674;2022-08-14T08:02:16;6.85;;;3.40;;
45322;SDS011;31382;50.200;8.674;2022-08-14T08:07:23;5.68;;;3.65;;
45322;SDS011;31382;50.200;8.674;2022-08-14T08:12:31;4.65;;;3.58;;
45322;SDS011;31382;50.200;8.674;2022-08-14T08:17:40;6.10;;;3.50;;
45322;SDS011;31382;50.200;8.674;2022-08-14T08:23:01;4.57;;;3.65;;
45322;SDS011;31382;50.200;8.674;2022-08-14T08:28:16;5.50;;;3.63;;
45322;SDS011;31382;50.200;8.674;2022-08-14T08:33:30;7.07;;;4.30;;
45322;SDS011;31382;50.200;8.674;2022-08-14T08:38:37;5.57;;;3.05;;
45322;SDS011;31382;50.200;8.674;2022-08-14T08:44:02;4.70;;;3.58;;
45322;SDS011;31382;50.200;8.674;2022-08-14T08:49:06;11.05;;;3.65;;
45322;SDS011;31382;50.200;8.674;2022-08-14T08:54:11;4.50;;;3.30;;
45322;SDS011;31382;50.200;8.674;2022-08-14T08:59:21;4.13;;;3.35;;
45322;SDS011;31382;50.200;8.674;2022-08-14T09:04:38;3.47;;;2.88;;
45322;SDS011;31382;50.200;8.674;2022-08-14T09:09:54;5.22;;;3.45;;
45322;SDS011;31382;50.200;8.674;2022-08-14T09:15:03;3.00;;;2.70;;
45322;SDS011;31382;50.200;8.674;2022-08-14T09:20:12;5.22;;;3.05;;
45322;SDS011;31382;50.200;8.674;2022-08-14T09:25:30;3.40;;;2.45;;
45322;SDS011;31382;50.200;8.674;2022-08-14T09:30:53;4.50;;;3.03;;
45322;SDS011;31382;50.200;8.674;2022-08-14T09:47:39;3.55;;;2.85;;
45322;SDS011;31382;50.200;8.674;2022-08-14T09:52:56;2.67;;;2.47;;
45322;SDS011;31382;50.200;8.674;2022-08-14T09:58:13;4.22;;;2.55;;
45322;SDS011;31382;50.200;8.674;2022-08-14T10:03:23;6.25;;;3.10;;
45322;SDS011;31382;50.200;8.674;2022-08-14T10:08:50;4.05;;;3.00;;
45322;SDS011;31382;50.200;8.674;2022-08-14T10:13:58;5.63;;;2.47;;
45322;SDS011;31382;50.200;8.674;2022-08-14T10:19:45;4.20;;;2.13;;
45322;SDS011;31382;50.200;8.674;2022-08-14T10:24:48;5.30;;;2.40;;
45322;SDS011;31382;50.200;8.674;2022-08-14T10:29:55;3.50;;;2.30;;
45322;SDS011;31382;50.200;8.674;2022-08-14T10:35:03;2.45;;;2.10;;
45322;SDS011;31382;50.200;8.674;2022-08-14T10:40:23;4.43;;;1.67;;
45322;SDS011;31382;50.200;8.674;2022-08-14T10:45:51;2.25;;;1.90;;
45322;SDS011;31382;50.200;8.674;2022-08-14T10:51:22;2.45;;;1.50;;
45322;SDS011;31382;50.200;8.674;2022-08-14T10:56:27;6.00;;;1.40;;
45322;SDS011;31382;50.200;8.674;2022-08-14T11:01:36;1.63;;;1.20;;
45322;SDS011;31382;50.200;8.674;2022-08-14T11:06:50;2.30;;;1.80;;
45322;SDS011;31382;50.200;8.674;2022-08-14T11:11:56;1.35;;;1.25;;
45322;SDS011;31382;50.200;8.674;2022-08-14T11:17:18;2.40;;;1.90;;
45322;SDS011;31382;50.200;8.674;2022-08-14T11:22:22;1.83;;;1.50;;
45322;SDS011;31382;50.200;8.674;2022-08-14T11:27:50;1.67;;;1.20;;
45322;SDS011;31382;50.200;8.674;2022-08-14T11:32:55;1.58;;;1.40;;
45322;SDS011;31382;50.200;8.674;2022-08-14T11:38:00;2.28;;;1.10;;
45322;SDS011;31382;50.200;8.674;2022-08-14T11:43:06;1.23;;;1.13;;
45322;SDS011;31382;50.200;8.674;2022-08-14T11:48:15;2.10;;;1.05;;
45322;SDS011;31382;50.200;8.674;2022-08-14T11:53:39;9.52;;;1.63;;
45322;SDS011;31382;50.200;8.674;2022-08-14T11:58:49;1.38;;;1.27;;
45322;SDS011;31382;50.200;8.674;2022-08-14T12:03:53;1.55;;;1.10;;
45322;SDS011;31382;50.200;8.674;2022-08-14T12:09:03;1.88;;;1.33;;
45322;SDS011;31382;50.200;8.674;2022-08-14T12:14:15;2.35;;;1.20;;
45322;SDS011;31382;50.200;8.674;2022-08-14T12:19:45;1.85;;;1.25;;
45322;SDS011;31382;50.200;8.674;2022-08-14T12:24:53;5.50;;;1.10;;
45322;SDS011;31382;50.200;8.674;2022-08-14T12:29:55;1.27;;;0.80;;
45322;SDS011;31382;50.200;8.674;2022-08-14T12:34:57;2.88;;;1.30;;
45322;SDS011;31382;50.200;8.674;2022-08-14T12:40:09;1.13;;;0.90;;
45322;SDS011;31382;50.200;8.674;2022-08-14T12:45:12;3.45;;;1.00;;
45322;SDS011;31382;50.200;8.674;2022-08-14T12:50:17;2.55;;;1.00;;
45322;SDS011;31382;50.200;8.674;2022-08-14T12:55:20;4.03;;;0.80;;
45322;SDS011;31382;50.200;8.674;2022-08-14T13:00:23;1.42;;;0.50;;
45322;SDS011;31382;50.200;8.674;2022-08-14T13:05:28;2.25;;;0.90;;
45322;SDS011;31382;50.200;8.674;2022-08-14T13:10:33;1.42;;;0.80;;
45322;SDS011;31382;50.200;8.674;2022-08-14T13:15:52;1.20;;;0.70;;
45322;SDS011;31382;50.200;8.674;2022-08-14T13:20:58;2.80;;;0.80;;
45322;SDS011;31382;50.200;8.674;2022-08-14T13:26:02;2.15;;;0.70;;
45322;SDS011;31382;50.200;8.674;2022-08-14T13:31:05;1.83;;;0.90;;
45322;SDS011;31382;50.200;8.674;2022-08-14T13:36:12;1.25;;;0.80;;
45322;SDS011;31382;50.200;8.674;2022-08-14T13:41:34;3.28;;;0.80;;
45322;SDS011;31382;50.200;8.674;2022-08-14T13:46:38;1.88;;;0.85;;
45322;SDS011;31382;50.200;8.674;2022-08-14T13:51:45;2.70;;;0.73;;
45322;SDS011;31382;50.200;8.674;2022-08-14T13:56:53;1.48;;;0.88;;
45322;SDS011;31382;50.200;8.674;2022-08-14T14:01:56;1.65;;;0.60;;
45322;SDS011;31382;50.200;8.674;2022-08-14T14:07:05;2.08;;;0.70;;
45322;SDS011;31382;50.200;8.674;2022-08-14T14:12:16;1.20;;;0.80;;
45322;SDS011;31382;50.200;8.674;2022-08-14T14:17:38;1.35;;;1.00;;
45322;SDS011;31382;50.200;8.674;2022-08-14T14:22:45;5.65;;;1.02;;
45322;SDS011;31382;50.200;8.674;2022-08-14T14:28:03;1.05;;;0.70;;
45322;SDS011;31382;50.200;8.674;2022-08-14T14:33:07;2.00;;;0.90;;
45322;SDS011;31382;50.200;8.674;2022-08-14T14:38:32;1.90;;;0.90;;
45322;SDS011;31382;50.200;8.674;2022-08-14T14:43:34;3.70;;;0.80;;
45322;SDS011;31382;50.200;8.674;2022-08-14T14:48:45;1.60;;;1.13;;
45322;SDS011;31382;50.200;8.674;2022-08-14T14:53:55;1.10;;;0.90;;
45322;SDS011;31382;50.200;8.674;2022-08-14T14:58:58;2.67;;;0.97;;
45322;SDS011;31382;50.200;8.674;2022-08-14T15:04:00;3.10;;;1.08;;
45322;SDS011;31382;50.200;8.674;2022-08-14T15:09:08;2.33;;;1.10;;
45322;SDS011;31382;50.200;8.674;2022-08-14T15:14:18;2.88;;;1.10;;
45322;SDS011;31382;50.200;8.674;2022-08-14T15:19:42;1.42;;;1.10;;
45322;SDS011;31382;50.200;8.674;2022-08-14T15:24:57;3.38;;;1.10;;
45322;SDS011;31382;50.200;8.674;2022-08-14T15:29:59;1.85;;;0.93;;
45322;SDS011;31382;50.200;8.674;2022-08-14T15:35:02;1.48;;;1.13;;
45322;SDS011;31382;50.200;8.674;2022-08-14T15:40:08;2.45;;;1.10;;
45322;SDS011;31382;50.200;8.674;2022-08-14T15:45:22;2.95;;;1.13;;
45322;SDS011;31382;50.200;8.674;2022-08-14T15:50:24;1.42;;;0.93;;
45322;SDS011;31382;50.200;8.674;2022-08-14T15:55:26;1.35;;;0.90;;
45322;SDS011;31382;50.200;8.674;2022-08-14T16:00:31;3.17;;;1.45;;
45322;SDS011;31382;50.200;8.674;2022-08-14T16:05:53;2.13;;;0.95;;
45322;SDS011;31382;50.200;8.674;2022-08-14T16:15:59;0.90;;;0.80;;
45322;SDS011;31382;50.200;8.674;2022-08-14T16:21:21;2.90;;;0.95;;
45322;SDS011;31382;50.200;8.674;2022-08-14T16:26:26;1.00;;;0.90;;
45322;SDS011;31382;50.200;8.674;2022-08-14T16:31:33;1.30;;;0.88;;
45322;SDS011;31382;50.200;8.674;2022-08-14T16:36:43;0.98;;;0.80;;
45322;SDS011;31382;50.200;8.674;2022-08-14T16:41:51;1.00;;;0.90;;
45322;SDS011;31382;50.200;8.674;2022-08-14T16:46:54;2.53;;;0.83;;
45322;SDS011;31382;50.200;8.674;2022-08-14T16:51:57;2.07;;;1.10;;
45322;SDS011;31382;50.200;8.674;2022-08-14T16:57:18;2.78;;;1.08;;
45322;SDS011;31382;50.200;8.674;2022-08-14T17:02:32;1.52;;;1.08;;
45322;SDS011;31382;50.200;8.674;2022-08-14T17:07:40;2.70;;;1.35;;
45322;SDS011;31382;50.200;8.674;2022-08-14T17:12:47;1.80;;;0.95;;
45322;SDS011;31382;50.200;8.674;2022-08-14T17:17:50;1.88;;;1.20;;
45322;SDS011;31382;50.200;8.674;2022-08-14T17:22:58;1.50;;;1.00;;
45322;SDS011;31382;50.200;8.674;2022-08-14T17:28:10;2.78;;;1.17;;
45322;SDS011;31382;50.200;8.674;2022-08-14T17:33:38;4.47;;;1.13;;
45322;SDS011;31382;50.200;8.674;2022-08-14T17:44:23;3.42;;;1.02;;
45322;SDS011;31382;50.200;8.674;2022-08-14T17:49:36;3.15;;;1.30;;
45322;SDS011;31382;50.200;8.674;2022-08-14T17:54:52;6.40;;;1.80;;
45322;SDS011;31382;50.200;8.674;2022-08-14T18:00:02;17.15;;;1.27;;
45322;SDS011;31382;50.200;8.674;2022-08-14T18:05:07;3.05;;;1.35;;
45322;SDS011;31382;50.200;8.674;2022-08-14T18:10:10;2.80;;;1.63;;
45322;SDS011;31382;50.200;8.674;2022-08-14T18:15:32;7.25;;;2.15;;
45322;SDS011;31382;50.200;8.674;2022-08-14T18:20:37;5.38;;;1.60;;
45322;SDS011;31382;50.200;8.674;2022-08-14T18:26:02;6.95;;;2.50;;
45322;SDS011;31382;50.200;8.674;2022-08-14T18:31:28;5.32;;;2.80;;
45322;SDS011;31382;50.200;8.674;2022-08-14T18:36:54;6.05;;;3.60;;
45322;SDS011;31382;50.200;8.674;2022-08-14T18:47:24;6.65;;;3.67;;
45322;SDS011;31382;50.200;8.674;2022-08-14T19:02:58;4.70;;;2.60;;
45322;SDS011;31382;50.200;8.674;2022-08-14T19:18:50;2.95;;;1.50;;
45322;SDS011;31382;50.200;8.674;2022-08-14T19:34:43;2.63;;;1.52;;
45322;SDS011;31382;50.200;8.674;2022-08-14T19:39:53;2.38;;;1.50;;
45322;SDS011;31382;50.200;8.674;2022-08-14T19:44:56;4.60;;;2.13;;
45322;SDS011;31382;50.200;8.674;2022-08-14T19:49:59;3.85;;;1.38;;
45322;SDS011;31382;50.200;8.674;2022-08-14T19:55:21;4.43;;;1.60;;
45322;SDS011;31382;50.200;8.674;2022-08-14T20:00:35;5.50;;;1.65;;
45322;SDS011;31382;50.200;8.674;2022-08-14T20:05:59;2.00;;;1.52;;
45322;SDS011;31382;50.200;8.674;2022-08-14T20:11:22;2.28;;;1.70;;
45322;SDS011;31382;50.200;8.674;2022-08-14T20:16:53;5.45;;;1.92;;
45322;SDS011;31382;50.200;8.674;2022-08-14T20:22:06;4.45;;;1.92;;
45322;SDS011;31382;50.200;8.674;2022-08-14T20:32:37;5.68;;;1.98;;
45322;SDS011;31382;50.200;8.674;2022-08-14T20:38:10;2.58;;;2.05;;
45322;SDS011;31382;50.200;8.674;2022-08-14T20:43:33;5.88;;;2.13;;
45322;SDS011;31382;50.200;8.674;2022-08-14T20:49:01;3.22;;;2.05;;
45322;SDS011;31382;50.200;8.674;2022-08-14T20:54:14;2.53;;;1.35;;
45322;SDS011;31382;50.200;8.674;2022-08-14T20:59:40;4.72;;;1.63;;
45322;SDS011;31382;50.200;8.674;2022-08-14T21:05:00;4.20;;;1.70;;
45322;SDS011;31382;50.200;8.674;2022-08-14T21:10:24;3.22;;;1.90;;
45322;SDS011;31382;50.200;8.674;2022-08-14T21:15:44;3.30;;;1.63;;
45322;SDS011;31382;50.200;8.674;2022-08-14T21:20:59;2.35;;;1.67;;
45322;SDS011;31382;50.200;8.674;2022-08-14T21:26:11;3.53;;;1.80;;
45322;SDS011;31382;50.200;8.674;2022-08-14T21:31:13;4.17;;;1.93;;
45322;SDS011;31382;50.200;8.674;2022-08-14T21:36:17;2.80;;;1.52;;
45322;SDS011;31382;50.200;8.674;2022-08-14T21:41:31;3.78;;;1.65;;
45322;SDS011;31382;50.200;8.674;2022-08-14T21:46:45;3.70;;;1.77;;
45322;SDS011;31382;50.200;8.674;2022-08-14T21:51:58;2.35;;;1.30;;
45322;SDS011;31382;50.200;8.674;2022-08-14T21:57:23;4.40;;;1.75;;
45322;SDS011;31382;50.200;8.674;2022-08-14T22:02:49;1.98;;;1.30;;
45322;SDS011;31382;50.200;8.674;2022-08-14T22:07:55;2.03;;;1.40;;
45322;SDS011;31382;50.200;8.674;2022-08-14T22:12:58;3.35;;;1.85;;
45322;SDS011;31382;50.200;8.674;2022-08-14T22:18:02;3.22;;;1.67;;
45322;SDS011;31382;50.200;8.674;2022-08-14T22:23:06;2.55;;;1.67;;
45322;SDS011;31382;50.200;8.674;2022-08-14T22:28:12;2.80;;;1.73;;
45322;SDS011;31382;50.200;8.674;2022-08-14T22:33:18;2.80;;;1.60;;
45322;SDS011;31382;50.200;8.674;2022-08-14T22:38:21;3.72;;;1.95;;
45322;SDS011;31382;50.200;8.674;2022-08-14T22:43:38;2.78;;;1.80;;
45322;SDS011;31382;50.200;8.674;2022-08-14T22:48:42;2.47;;;1.80;;
45322;SDS011;31382;50.200;8.674;2022-08-14T22:53:48;2.75;;;1.77;;
45322;SDS011;31382;50.200;8.674;2022-08-14T22:58:54;5.60;;;1.88;;
45322;SDS011;31382;50.200;8.674;2022-08-14T23:03:58;4.57;;;1.90;;
45322;SDS011;31382;50.200;8.674;2022-08-14T23:09:03;3.80;;;2.00;;
45322;SDS011;31382;50.200;8.674;2022-08-14T23:14:27;3.78;;;2.35;;
45322;SDS011;31382;50.200;8.674;2022-08-14T23:19:33;2.38;;;2.17;;
45322;SDS011;31382;50.200;8.674;2022-08-14T23:24:42;4.20;;;2.08;;
45322;SDS011;31382;50.200;8.674;2022-08-14T23:29:48;2.92;;;1.50;;
45322;SDS011;31382;50.200;8.674;2022-08-14T23:34:54;4.22;;;1.67;;
45322;SDS011;31382;50.200;8.674;2022-08-14T23:39:56;2.25;;;1.50;;
45322;SDS011;31382;50.200;8.674;2022-08-14T23:45:00;2.42;;;1.77;;
45322;SDS011;31382;50.200;8.674;2022-08-14T23:50:03;4.18;;;1.90;;
45322;SDS011;31382;50.200;8.674;2022-08-14T23:55:08;5.38;;;1.45;;
